Time;durP1;ratioP1;P1;durP2;ratioP2;P2;SDS_P1;SDS_P2;PMS_P1;PMS_P2;Temp;Humidity;BMP_temperature;BMP_pressure;BME280_temperature;BME280_humidity;BME280_pressure;Samples;Min_cycle;Max_cycle;Signal;HPM_P1;HPM_P2
2023/02/10 00:01:13;;;;;;;19.63;8.82;;;;;;;-7.59;100.00;99525.09;5060332;28;20162;-78
2023/02/10 00:03:39;;;;;;;22.77;9.85;;;;;;;-7.56;100.00;99538.22;5073156;28;20092;-79
2023/02/10 00:06:05;;;;;;;31.45;12.23;;;;;;;-7.61;100.00;99533.66;5067097;28;20070;-77
2023/02/10 00:08:31;;;;;;;30.35;13.60;;;;;;;-7.66;100.00;99530.91;5082196;28;20448;-78
2023/02/10 00:10:58;;;;;;;32.88;14.85;;;;;;;-7.61;100.00;99546.66;5087030;28;20447;-78
2023/02/10 00:13:24;;;;;;;41.70;15.05;;;;;;;-7.68;100.00;99540.31;5061665;28;20122;-78
2023/02/10 00:15:50;;;;;;;39.67;15.27;;;;;;;-7.72;100.00;99538.44;5088810;28;20161;-79
2023/02/10 00:18:16;;;;;;;37.83;15.68;;;;;;;-7.69;100.00;99547.22;5059624;28;20036;-78
2023/02/10 00:20:41;;;;;;;41.08;15.75;;;;;;;-7.65;100.00;99550.84;5073997;28;20044;-78
2023/02/10 00:23:07;;;;;;;45.85;17.25;;;;;;;-7.76;100.00;99541.72;5063798;28;20024;-78
2023/02/10 00:25:35;;;;;;;39.05;16.02;;;;;;;-7.72;100.00;99549.69;5070679;28;20035;-78
2023/02/10 00:28:00;;;;;;;38.80;15.02;;;;;;;-7.78;100.00;99535.56;5065180;28;20089;-79
2023/02/10 00:30:26;;;;;;;38.85;15.07;;;;;;;-7.78;100.00;99532.97;5079237;28;20410;-78
2023/02/10 00:32:51;;;;;;;33.78;14.85;;;;;;;-7.72;100.00;99533.25;5071261;28;20023;-77
2023/02/10 00:35:17;;;;;;;34.90;14.60;;;;;;;-7.64;100.00;99539.63;5114701;28;20027;-77
2023/02/10 00:37:42;;;;;;;37.53;14.85;;;;;;;-7.74;100.00;99524.47;5079484;28;20031;-78
2023/02/10 00:40:08;;;;;;;27.05;12.80;;;;;;;-7.72;100.00;99534.09;5076690;28;20093;-78
2023/02/10 00:42:34;;;;;;;39.55;15.35;;;;;;;-7.75;100.00;99543.50;5067459;28;20027;-78
2023/02/10 00:44:59;;;;;;;43.30;16.45;;;;;;;-7.79;100.00;99526.00;5060466;28;20032;-78
2023/02/10 00:47:25;;;;;;;32.03;14.63;;;;;;;-7.75;100.00;99533.97;5074294;28;20016;-78
2023/02/10 00:49:52;;;;;;;42.58;15.18;;;;;;;-7.77;100.00;99521.75;5084357;28;20034;-78
2023/02/10 00:52:17;;;;;;;42.40;17.02;;;;;;;-7.74;100.00;99529.69;5079199;28;20027;-78
2023/02/10 00:54:43;;;;;;;39.78;15.63;;;;;;;-7.78;100.00;99519.97;5079303;28;20085;-78
2023/02/10 00:57:09;;;;;;;41.05;15.65;;;;;;;-7.79;100.00;99526.00;5078844;28;20088;-78
2023/02/10 00:59:34;;;;;;;30.35;13.55;;;;;;;-7.86;100.00;99516.19;5064945;28;20020;-78
2023/02/10 01:01:59;;;;;;;46.85;15.73;;;;;;;-7.81;100.00;99506.88;5083922;28;20123;-79
2023/02/10 01:04:25;;;;;;;32.88;14.38;;;;;;;-7.84;100.00;99504.13;5071692;28;20498;-78
2023/02/10 01:06:51;;;;;;;40.20;16.33;;;;;;;-7.89;100.00;99498.78;5071090;28;20028;-78
2023/02/10 01:09:17;;;;;;;37.08;14.52;;;;;;;-7.83;100.00;99504.22;5058617;28;20027;-78
2023/02/10 01:11:43;;;;;;;32.17;12.60;;;;;;;-7.93;100.00;99480.41;5090760;28;20022;-78
2023/02/10 01:14:09;;;;;;;31.13;12.60;;;;;;;-7.91;100.00;99483.97;5093949;28;20479;-78
2023/02/10 01:16:35;;;;;;;34.85;13.02;;;;;;;-7.93;100.00;99485.59;5080855;28;20043;-78
2023/02/10 01:19:00;;;;;;;38.28;13.98;;;;;;;-7.81;100.00;99507.75;5086839;28;20115;-78
2023/02/10 01:21:26;;;;;;;37.22;15.23;;;;;;;-7.87;100.00;99485.84;5071295;28;20552;-78
2023/02/10 01:23:51;;;;;;;41.13;16.08;;;;;;;-7.79;100.00;99492.25;5095626;28;20039;-79
2023/02/10 01:26:17;;;;;;;47.03;14.57;;;;;;;-7.83;100.00;99482.56;5078500;28;20031;-78
2023/02/10 01:28:43;;;;;;;41.38;15.07;;;;;;;-7.77;100.00;99491.50;5078632;28;20068;-79
2023/02/10 01:31:14;;;;;;;43.33;17.35;;;;;;;-7.79;100.00;99487.06;5070080;28;20143;-78
2023/02/10 01:33:39;;;;;;;42.05;15.55;;;;;;;-7.78;100.00;99478.44;5087271;28;20090;-78
2023/02/10 01:36:06;;;;;;;32.47;13.80;;;;;;;-7.84;100.00;99475.59;5069565;28;20031;-77
2023/02/10 01:38:32;;;;;;;30.55;13.35;;;;;;;-7.85;100.00;99469.53;5062922;28;20023;-79
2023/02/10 01:40:58;;;;;;;39.95;15.27;;;;;;;-7.84;100.00;99470.38;5078947;28;20035;-79
2023/02/10 01:43:24;;;;;;;35.67;13.60;;;;;;;-7.81;100.00;99476.59;5068907;28;20505;-79
2023/02/10 01:45:49;;;;;;;35.45;14.27;;;;;;;-7.85;100.00;99463.44;5088607;28;20407;-78
2023/02/10 01:48:15;;;;;;;41.28;13.20;;;;;;;-7.81;100.00;99463.63;5094583;28;20020;-78
2023/02/10 01:51:07;;;;;;;40.25;14.73;;;;;;;-7.82;100.00;99460.97;5078217;28;20015;-78
2023/02/10 01:53:32;;;;;;;33.10;14.32;;;;;;;-7.96;100.00;99438.75;5081767;28;20123;-78
2023/02/10 01:55:59;;;;;;;45.13;17.92;;;;;;;-7.82;100.00;99455.78;5074769;28;20051;-78
2023/02/10 01:58:28;;;;;;;35.42;15.27;;;;;;;-7.89;100.00;99439.06;5057916;28;20024;-78
2023/02/10 02:00:53;;;;;;;50.05;18.52;;;;;;;-7.94;100.00;99435.41;5058169;28;20089;-78
2023/02/10 02:03:21;;;;;;;55.88;18.20;;;;;;;-7.94;100.00;99450.97;5091663;28;20027;-78
2023/02/10 02:05:47;;;;;;;42.53;15.93;;;;;;;-8.08;100.00;99433.94;5077356;28;20020;-78
2023/02/10 02:08:22;;;;;;;35.13;15.38;;;;;;;-7.84;100.00;99453.09;5058638;28;20030;-78
2023/02/10 02:11:00;;;;;;;37.78;14.93;;;;;;;-7.86;100.00;99462.56;5066680;28;20583;-78
2023/02/10 02:13:31;;;;;;;40.90;14.05;;;;;;;-7.95;100.00;99462.19;5104373;28;20028;-78
2023/02/10 02:16:24;;;;;;;34.58;14.32;;;;;;;-8.00;100.00;99447.25;5061913;28;20076;-78
2023/02/10 02:18:59;;;;;;;34.10;13.07;;;;;;;-7.93;100.00;99451.84;5063462;28;20036;-78
2023/02/10 02:21:53;;;;;;;36.10;13.43;;;;;;;-8.06;100.00;99439.22;5085220;28;20038;-78
2023/02/10 02:24:45;;;;;;;24.02;10.60;;;;;;;-8.04;100.00;99442.75;5080789;28;20056;-78
2023/02/10 02:27:34;;;;;;;24.95;8.20;;;;;;;-8.14;100.00;99436.28;5060217;28;20028;-78
2023/02/10 02:30:12;;;;;;;26.13;7.25;;;;;;;-8.20;100.00;99427.34;5068941;28;20419;-78
2023/02/10 02:32:49;;;;;;;18.05;7.70;;;;;;;-8.26;100.00;99425.41;5079418;28;20034;-78
2023/02/10 02:35:24;;;;;;;17.30;7.22;;;;;;;-8.29;100.00;99421.00;5065694;28;20487;-78
2023/02/10 02:37:52;;;;;;;14.45;6.07;;;;;;;-8.38;100.00;99412.84;5074684;28;20089;-78
2023/02/10 02:40:18;;;;;;;11.57;6.38;;;;;;;-8.38;100.00;99407.66;5069303;28;20031;-79
2023/02/10 02:42:43;;;;;;;15.63;6.60;;;;;;;-8.32;100.00;99409.59;5094365;28;20425;-79
2023/02/10 02:45:31;;;;;;;12.18;5.35;;;;;;;-8.44;100.00;99402.22;5094434;28;20031;-77
2023/02/10 02:48:19;;;;;;;15.93;6.88;;;;;;;-8.48;100.00;99400.28;5087236;28;20035;-77
2023/02/10 02:50:51;;;;;;;14.80;5.70;;;;;;;-8.50;100.00;99404.53;5079171;28;20069;-78
2023/02/10 02:53:19;;;;;;;16.50;7.18;;;;;;;-8.53;100.00;99395.75;5073247;28;20479;-78
2023/02/10 02:56:09;;;;;;;21.35;8.60;;;;;;;-8.46;100.00;99409.00;5092049;28;20110;-80
2023/02/10 02:58:46;;;;;;;20.75;8.52;;;;;;;-8.40;100.00;99413.59;5075789;28;20039;-78
2023/02/10 03:01:21;;;;;;;19.55;7.90;;;;;;;-8.49;100.00;99400.25;5086687;28;20102;-78
2023/02/10 03:03:46;;;;;;;19.40;9.07;;;;;;;-8.47;100.00;99412.47;5082202;28;20020;-77
2023/02/10 03:06:12;;;;;;;18.52;9.27;;;;;;;-8.47;100.00;99402.06;5065013;28;20100;-77
2023/02/10 03:08:39;;;;;;;32.88;12.88;;;;;;;-8.44;100.00;99422.06;5081801;28;20030;-77
2023/02/10 03:11:05;;;;;;;77.55;22.88;;;;;;;-8.51;100.00;99401.88;5056829;28;20482;-77
2023/02/10 03:13:30;;;;;;;57.00;18.40;;;;;;;-8.63;100.00;99394.47;5056630;28;20115;-77
2023/02/10 03:15:58;;;;;;;40.88;14.95;;;;;;;-8.60;100.00;99410.16;5066216;28;20051;-78
2023/02/10 03:18:24;;;;;;;54.13;17.05;;;;;;;-8.74;100.00;99380.16;5064689;28;20150;-77
2023/02/10 03:20:49;;;;;;;80.80;26.27;;;;;;;-8.64;100.00;99399.59;5078436;28;20056;-78
2023/02/10 03:23:15;;;;;;;50.00;17.83;;;;;;;-8.60;100.00;99404.97;5078278;28;20036;-78
2023/02/10 03:25:40;;;;;;;80.60;31.42;;;;;;;-8.65;100.00;99405.59;5088654;28;20039;-77
2023/02/10 03:28:06;;;;;;;32.70;12.15;;;;;;;-8.64;100.00;99410.84;5067519;28;20472;-78
2023/02/10 03:30:32;;;;;;;30.88;10.68;;;;;;;-8.77;100.00;99411.16;5078857;28;20035;-77
2023/02/10 03:32:58;;;;;;;35.22;14.88;;;;;;;-8.94;100.00;99394.84;5060352;28;20060;-78
2023/02/10 03:35:23;;;;;;;45.75;15.77;;;;;;;-9.02;100.00;99392.75;5086291;28;20448;-77
2023/02/10 03:37:49;;;;;;;40.60;16.95;;;;;;;-8.99;100.00;99392.88;5061587;28;20029;-78
2023/02/10 03:40:15;;;;;;;41.25;13.80;;;;;;;-8.99;100.00;99388.59;5068065;28;20479;-77
2023/02/10 03:42:40;;;;;;;39.95;16.40;;;;;;;-8.90;100.00;99393.28;5071749;28;20421;-77
2023/02/10 03:45:06;;;;;;;40.50;17.23;;;;;;;-9.01;100.00;99387.63;5069654;28;20058;-78
2023/02/10 03:47:37;;;;;;;38.47;15.57;;;;;;;-8.79;100.00;99412.75;5072793;28;20029;-78
2023/02/10 03:50:02;;;;;;;29.95;13.38;;;;;;;-8.83;100.00;99403.97;5062260;28;20045;-79
2023/02/10 03:52:28;;;;;;;26.55;12.50;;;;;;;-8.94;100.00;99391.38;5052875;28;20028;-77
2023/02/10 03:54:53;;;;;;;30.90;13.35;;;;;;;-8.96;100.00;99387.84;5074893;28;20470;-77
2023/02/10 03:57:19;;;;;;;56.75;21.70;;;;;;;-8.98;100.00;99394.66;5061073;28;20028;-78
2023/02/10 03:59:44;;;;;;;34.22;15.48;;;;;;;-8.94;100.00;99401.72;5080289;28;20097;-78
2023/02/10 04:02:10;;;;;;;36.47;14.77;;;;;;;-9.01;100.00;99389.34;5060563;28;20530;-77
2023/02/10 04:04:36;;;;;;;24.77;11.27;;;;;;;-8.96;100.00;99403.38;5066790;28;20024;-78
2023/02/10 04:07:02;;;;;;;23.25;10.27;;;;;;;-9.02;100.00;99391.06;5062752;28;20024;-77
2023/02/10 04:09:33;;;;;;;27.10;11.02;;;;;;;-9.05;100.00;99390.03;5094049;28;20028;-77
2023/02/10 04:11:59;;;;;;;19.25;7.90;;;;;;;-9.12;100.00;99390.56;5071555;28;20031;-76
2023/02/10 04:14:25;;;;;;;24.08;9.68;;;;;;;-9.07;100.00;99391.63;5070839;28;20039;-78
2023/02/10 04:16:50;;;;;;;16.88;8.43;;;;;;;-9.04;100.00;99394.41;5070166;28;20510;-78
2023/02/10 04:19:16;;;;;;;13.35;7.15;;;;;;;-9.51;100.00;99338.78;5094312;28;20031;-77
2023/02/10 04:21:42;;;;;;;16.70;9.05;;;;;;;-9.29;100.00;99373.41;5070861;28;20047;-79
2023/02/10 04:24:07;;;;;;;17.50;7.10;;;;;;;-9.17;100.00;99402.44;5087729;28;20024;-77
2023/02/10 04:26:42;;;;;;;17.17;8.23;;;;;;;-9.17;100.00;99402.44;5073638;28;20076;-78
2023/02/10 04:29:07;;;;;;;34.70;11.57;;;;;;;-9.23;100.00;99396.97;5087794;28;20084;-78
2023/02/10 04:32:08;;;;;;;35.28;12.02;;;;;;;-9.45;100.00;99369.22;5078974;28;20082;-80
2023/02/10 04:34:34;;;;;;;44.38;15.18;;;;;;;-9.29;100.00;99388.94;5071375;28;20502;-78
2023/02/10 04:37:02;;;;;;;28.00;11.60;;;;;;;-9.33;100.00;99379.25;5088962;28;20035;-79
2023/02/10 04:39:28;;;;;;;32.53;14.98;;;;;;;-9.38;100.00;99382.50;5105271;28;20039;-79
2023/02/10 04:45:44;;;;;;;17.00;9.48;;;;;;;-9.96;100.00;99300.41;5096018;28;20089;-82
2023/02/10 04:48:09;;;;;;;47.38;17.63;;;;;;;-9.44;100.00;99404.66;5081861;28;20054;-80
2023/02/10 04:50:36;;;;;;;32.15;12.57;;;;;;;-9.93;100.00;99316.09;5092327;28;20027;-78
2023/02/10 04:53:02;;;;;;;28.52;12.70;;;;;;;-9.32;100.00;99404.34;5079052;28;20038;-79
2023/02/10 04:55:27;;;;;;;50.35;18.42;;;;;;;-9.20;100.00;99407.47;5110763;28;20546;-78
2023/02/10 04:57:56;;;;;;;50.50;19.48;;;;;;;-9.29;100.00;99395.00;5102031;28;20036;-78
2023/02/10 05:00:22;;;;;;;64.00;19.80;;;;;;;-9.23;100.00;99400.47;5077336;28;20016;-79
2023/02/10 05:02:47;;;;;;;26.00;10.50;;;;;;;-9.22;100.00;99404.81;5086256;28;20024;-79
2023/02/10 05:05:13;;;;;;;20.73;9.27;;;;;;;-9.09;100.00;99422.69;5071319;28;20040;-80
2023/02/10 05:07:39;;;;;;;22.45;8.68;;;;;;;-9.07;100.00;99430.50;5076374;28;20087;-80
2023/02/10 05:10:05;;;;;;;22.70;9.60;;;;;;;-9.32;100.00;99402.66;5092547;28;20050;-77
2023/02/10 05:12:30;;;;;;;18.98;9.00;;;;;;;-9.37;100.00;99409.28;5088754;28;20029;-80
2023/02/10 05:14:56;;;;;;;26.08;10.23;;;;;;;-9.24;100.00;99447.91;5070352;28;20052;-80
2023/02/10 05:17:21;;;;;;;22.75;8.82;;;;;;;-9.25;100.00;99443.53;5054832;28;20403;-79
2023/02/10 05:19:47;;;;;;;38.83;12.95;;;;;;;-9.31;100.00;99439.75;5061551;28;20133;-78
2023/02/10 05:22:12;;;;;;;36.92;12.68;;;;;;;-9.33;100.00;99441.41;5058307;28;20059;-77
2023/02/10 05:24:38;;;;;;;29.23;12.30;;;;;;;-9.24;100.00;99454.78;5073481;28;20052;-81
2023/02/10 05:27:03;;;;;;;27.45;11.85;;;;;;;-9.20;100.00;99459.28;5074380;28;20082;-78
2023/02/10 05:29:29;;;;;;;22.65;10.48;;;;;;;-9.30;100.00;99449.31;5074912;28;20020;-78
2023/02/10 05:31:55;;;;;;;39.38;15.32;;;;;;;-9.30;100.00;99457.09;5058999;28;20094;-79
2023/02/10 05:34:20;;;;;;;50.88;17.20;;;;;;;-9.33;100.00;99460.44;5086208;28;20059;-79
2023/02/10 05:36:46;;;;;;;129.63;35.78;;;;;;;-9.42;100.00;99432.41;5085525;28;20029;-79
2023/02/10 05:39:24;;;;;;;68.28;24.10;;;;;;;-9.38;100.00;99446.34;5076611;28;20455;-79
2023/02/10 05:41:54;;;;;;;70.47;24.83;;;;;;;-9.22;100.00;99476.44;5067659;28;20507;-80
2023/02/10 05:44:20;;;;;;;42.58;20.15;;;;;;;-9.26;100.00;99461.59;5068227;28;20507;-79
2023/02/10 05:46:45;;;;;;;69.07;27.33;;;;;;;-9.22;100.00;99458.31;5067920;28;20024;-79
2023/02/10 05:49:11;;;;;;;90.50;33.88;;;;;;;-9.17;100.00;99472.38;5083055;28;20551;-80
2023/02/10 05:52:15;;;;;;;108.53;49.53;;;;;;;-9.10;100.00;99477.00;5062543;28;20123;-80
2023/02/10 05:54:40;;;;;;;76.43;33.70;;;;;;;-8.99;100.00;99474.13;5052954;28;20036;-79
2023/02/10 05:57:07;;;;;;;105.78;36.03;;;;;;;-8.97;100.00;99468.97;5054585;28;20028;-79
2023/02/10 05:59:32;;;;;;;101.55;36.45;;;;;;;-8.85;100.00;99485.06;5061785;28;20495;-79
2023/02/10 06:01:58;;;;;;;69.65;27.33;;;;;;;-8.73;100.00;99480.44;5065721;28;20058;-80
2023/02/10 06:04:24;;;;;;;81.18;26.15;;;;;;;-8.63;100.00;99482.63;5065891;28;20028;-78
2023/02/10 06:06:50;;;;;;;65.85;26.02;;;;;;;-8.44;100.00;99493.00;5061463;28;20503;-78
2023/02/10 06:09:15;;;;;;;58.50;24.02;;;;;;;-8.37;100.00;99487.25;5074047;28;20034;-78
2023/02/10 06:11:41;;;;;;;93.53;34.13;;;;;;;-8.37;100.00;99495.03;5073825;28;20027;-77
2023/02/10 06:14:07;;;;;;;69.78;23.05;;;;;;;-8.33;100.00;99496.91;5074109;28;20035;-78
2023/02/10 06:16:32;;;;;;;56.15;22.00;;;;;;;-8.19;100.00;99486.22;5061461;28;20415;-78
2023/02/10 06:18:58;;;;;;;52.35;19.80;;;;;;;-8.14;100.00;99474.31;5061692;28;20028;-79
2023/02/10 06:21:23;;;;;;;44.97;19.45;;;;;;;-7.81;100.00;99483.50;5060881;28;20035;-79
2023/02/10 06:23:49;;;;;;;55.30;22.55;;;;;;;-7.69;100.00;99437.28;5058636;28;20024;-79
2023/02/10 06:26:15;;;;;;;132.57;37.10;;;;;;;-6.26;100.00;99503.34;5078369;28;20503;-79
2023/02/10 06:28:41;;;;;;;137.70;50.25;;;;;;;-5.32;100.00;99491.72;5070487;28;20087;-80
2023/02/10 06:31:10;;;;;;;129.00;46.67;;;;;;;-4.71;100.00;99462.31;5059223;28;20090;-80
2023/02/10 06:33:36;;;;;;;124.95;45.97;;;;;;;-4.12;100.00;99445.66;5065412;28;20153;-80
2023/02/10 06:36:06;;;;;;;136.77;43.45;;;;;;;-3.15;100.00;99443.69;5069186;28;20032;-80
2023/02/10 06:38:32;;;;;;;86.30;36.42;;;;;;;-2.30;91.06;99424.50;5065211;28;20058;-79
2023/02/10 06:40:58;;;;;;;98.65;39.10;;;;;;;-1.51;83.14;99404.94;5059348;28;20464;-80
2023/02/10 06:43:24;;;;;;;102.00;37.90;;;;;;;-0.86;74.84;99390.09;5083532;28;20034;-80
2023/02/10 06:45:49;;;;;;;84.07;33.47;;;;;;;-0.40;69.95;99389.75;5072553;28;20033;-80
2023/02/10 06:48:15;;;;;;;93.47;33.22;;;;;;;-0.43;67.56;99376.59;5077439;28;20060;-80
2023/02/10 06:50:40;;;;;;;83.03;33.55;;;;;;;-0.33;65.97;99359.16;5071968;28;20597;-80
2023/02/10 06:53:06;;;;;;;84.03;33.80;;;;;;;-0.04;64.48;99361.25;5071521;28;20036;-78
2023/02/10 06:55:31;;;;;;;83.18;32.50;;;;;;;-0.29;64.39;99334.69;5076365;28;20135;-79
2023/02/10 06:58:00;;;;;;;73.13;29.20;;;;;;;-0.31;63.95;99331.16;5063028;28;20476;-79
2023/02/10 07:00:26;;;;;;;63.63;25.42;;;;;;;-0.38;63.66;99330.22;5068157;28;20032;-80
2023/02/10 07:02:51;;;;;;;66.80;24.08;;;;;;;-1.30;68.51;99326.50;5084887;28;20030;-80
2023/02/10 07:05:17;;;;;;;50.53;21.90;;;;;;;-0.86;68.03;99342.84;5060697;28;20476;-80
2023/02/10 07:07:43;;;;;;;59.97;23.33;;;;;;;-0.44;67.59;99340.69;5069076;28;20025;-80
2023/02/10 07:10:09;;;;;;;63.47;25.13;;;;;;;0.23;63.64;99321.09;5073519;28;20035;-80
2023/02/10 07:12:34;;;;;;;62.28;24.52;;;;;;;0.31;60.60;99279.94;5077739;28;20028;-82
2023/02/10 07:15:00;;;;;;;73.20;24.30;;;;;;;0.72;60.59;99305.63;5084223;28;20040;-80
2023/02/10 07:17:26;;;;;;;72.10;26.63;;;;;;;0.93;59.66;99311.00;5084838;28;20025;-81
2023/02/10 07:19:51;;;;;;;69.10;25.98;;;;;;;1.34;58.62;99313.78;5087476;28;20035;-83
2023/02/10 07:22:17;;;;;;;75.07;29.25;;;;;;;1.44;57.11;99295.38;5063139;28;20034;-83
2023/02/10 07:24:42;;;;;;;64.35;27.05;;;;;;;1.35;57.47;99291.84;5067089;28;20052;-82
2023/02/10 07:27:08;;;;;;;61.67;25.20;;;;;;;1.30;56.89;99281.25;5066124;28;20044;-81
2023/02/10 07:29:33;;;;;;;59.25;25.88;;;;;;;1.85;55.99;99291.88;5084478;28;20033;-82
2023/02/10 07:31:59;;;;;;;64.93;25.60;;;;;;;2.63;55.11;99298.88;5064982;28;20024;-81
2023/02/10 07:34:25;;;;;;;57.95;23.95;;;;;;;3.21;52.46;99296.91;5058455;28;20015;-81
2023/02/10 07:36:53;;;;;;;51.13;23.85;;;;;;;3.03;51.87;99271.44;5067533;28;20028;-81
2023/02/10 07:39:23;;;;;;;54.60;23.88;;;;;;;3.35;52.63;99292.44;5082785;28;20032;-80
2023/02/10 07:41:50;;;;;;;58.28;24.20;;;;;;;2.37;53.86;99266.38;5058038;28;20474;-80
2023/02/10 07:44:16;;;;;;;214.10;82.05;;;;;;;2.40;55.53;99276.94;5061164;28;20029;-79
2023/02/10 07:46:41;;;;;;;56.28;25.13;;;;;;;2.77;54.10;99283.00;5075339;28;20013;-81
2023/02/10 07:49:09;;;;;;;58.58;25.50;;;;;;;2.97;52.78;99266.19;5072425;28;20024;-81
2023/02/10 07:51:35;;;;;;;60.22;24.23;;;;;;;3.22;52.48;99277.53;5070174;28;20056;-82
2023/02/10 07:54:01;;;;;;;58.08;24.65;;;;;;;3.23;51.56;99252.84;5077148;28;20561;-81
2023/02/10 07:56:26;;;;;;;59.17;24.92;;;;;;;3.33;51.54;99258.94;5067754;28;20051;-81
2023/02/10 07:58:52;;;;;;;67.68;26.25;;;;;;;4.11;50.57;99289.28;5065794;28;20045;-81
2023/02/10 08:01:17;;;;;;;63.35;27.48;;;;;;;4.41;49.69;99272.22;5062442;28;20035;-80
2023/02/10 08:03:43;;;;;;;61.30;28.45;;;;;;;4.12;49.89;99254.81;5080095;28;20038;-81
2023/02/10 08:06:08;;;;;;;46.22;21.95;;;;;;;4.62;49.37;99267.56;5052542;28;20028;-82
2023/02/10 08:08:34;;;;;;;55.53;23.48;;;;;;;4.44;49.38;99258.94;5060937;28;20028;-82
2023/02/10 08:11:04;;;;;;;51.80;23.92;;;;;;;4.58;49.13;99254.41;5069185;28;20092;-81
2023/02/10 08:13:29;;;;;;;47.08;20.67;;;;;;;4.37;48.86;99239.56;5059588;28;20031;-81
2023/02/10 08:15:55;;;;;;;66.35;25.02;;;;;;;5.30;47.92;99265.88;5061824;28;20474;-82
2023/02/10 08:18:21;;;;;;;59.10;26.70;;;;;;;5.23;48.20;99250.97;5060594;28;20377;-80
2023/02/10 08:20:46;;;;;;;57.28;23.63;;;;;;;5.70;47.24;99264.41;5082065;28;20030;-81
2023/02/10 08:23:14;;;;;;;40.58;17.77;;;;;;;5.45;46.71;99239.13;5060738;28;20032;-81
2023/02/10 08:25:40;;;;;;;42.13;17.48;;;;;;;5.69;46.03;99236.09;5082126;28;20024;-81
2023/02/10 08:28:05;;;;;;;41.95;17.75;;;;;;;5.15;47.81;99239.56;5064134;28;20035;-81
2023/02/10 08:30:31;;;;;;;42.30;17.58;;;;;;;5.19;46.84;99223.59;5064154;28;20546;-81
2023/02/10 08:32:57;;;;;;;51.65;22.77;;;;;;;5.26;48.15;99241.16;5058202;28;20066;-81
2023/02/10 08:35:22;;;;;;;63.47;28.35;;;;;;;5.56;47.02;99239.84;5060797;28;20029;-81
2023/02/10 08:37:48;;;;;;;66.20;30.17;;;;;;;6.01;47.14;99251.56;5071497;28;20060;-81
2023/02/10 08:40:14;;;;;;;68.95;31.55;;;;;;;5.88;46.98;99240.25;5068205;28;20036;-81
2023/02/10 08:42:39;;;;;;;68.55;31.63;;;;;;;6.54;45.64;99255.94;5059972;28;20027;-81
2023/02/10 08:45:05;;;;;;;85.43;37.67;;;;;;;6.40;44.69;99232.25;5065285;28;20024;-81
2023/02/10 08:47:31;;;;;;;76.05;32.00;;;;;;;6.45;45.09;99229.53;5070957;28;20028;-81
2023/02/10 08:49:59;;;;;;;61.47;29.40;;;;;;;6.87;43.61;99225.16;5054074;28;20044;-80
2023/02/10 08:52:25;;;;;;;71.50;32.47;;;;;;;6.78;44.24;99210.28;5059106;28;20023;-82
2023/02/10 08:54:51;;;;;;;68.30;31.88;;;;;;;7.54;42.61;99217.47;5076610;28;20037;-79
2023/02/10 08:57:17;;;;;;;72.22;33.38;;;;;;;6.97;43.19;99198.34;5074242;28;20037;-80
2023/02/10 08:59:42;;;;;;;69.57;32.95;;;;;;;6.91;43.18;99195.81;5065633;28;20107;-80
2023/02/10 09:02:10;;;;;;;67.75;30.50;;;;;;;7.12;43.30;99199.81;5067080;28;20452;-79
2023/02/10 09:04:36;;;;;;;56.38;24.80;;;;;;;6.26;43.84;99164.34;5057545;28;20024;-81
2023/02/10 09:07:01;;;;;;;62.50;25.70;;;;;;;6.14;45.31;99193.78;5089209;28;20028;-80
2023/02/10 09:09:27;;;;;;;64.50;27.33;;;;;;;6.19;44.67;99183.94;5055926;28;20115;-81
2023/02/10 09:11:54;;;;;;;59.33;26.05;;;;;;;5.78;45.46;99158.97;5057759;28;20028;-80
2023/02/10 09:14:20;;;;;;;64.32;29.42;;;;;;;5.92;45.61;99172.94;5074717;28;20020;-80
2023/02/10 09:16:45;;;;;;;59.60;28.00;;;;;;;7.12;44.09;99215.78;5073693;28;20032;-80
2023/02/10 09:19:11;;;;;;;65.82;30.45;;;;;;;7.15;45.03;99207.72;5093833;28;20027;-79
2023/02/10 09:21:42;;;;;;;59.83;27.13;;;;;;;6.83;44.46;99157.00;5063268;28;20024;-79
2023/02/10 09:27:04;;;;;;;66.95;30.67;;;;;;;6.48;45.30;99166.56;5074690;28;20277;-79
2023/02/10 09:29:30;;;;;;;71.53;29.95;;;;;;;5.51;46.37;99119.59;5082145;28;20043;-79
2023/02/10 09:31:57;;;;;;;61.88;27.42;;;;;;;5.66;46.98;99151.19;5066888;28;20020;-80
2023/02/10 09:34:22;;;;;;;64.18;30.92;;;;;;;7.28;45.40;99197.69;5063652;28;20023;-80
2023/02/10 09:36:57;;;;;;;100.78;41.42;;;;;;;8.23;43.04;99191.81;5064458;28;20035;-80
2023/02/10 09:39:25;;;;;;;69.88;33.90;;;;;;;8.31;42.09;99187.16;5077253;28;20035;-78
2023/02/10 09:42:16;;;;;;;69.25;32.03;;;;;;;7.79;41.96;99158.28;5072227;28;20024;-80
2023/02/10 09:44:48;;;;;;;63.83;31.92;;;;;;;7.33;42.70;99107.94;5089419;28;20190;-80
2023/02/10 09:47:35;;;;;;;69.75;32.28;;;;;;;7.73;43.44;99169.97;5068810;28;20576;-81
2023/02/10 09:50:30;;;;;;;63.17;28.15;;;;;;;8.64;42.23;99188.94;5091692;28;20044;-79
2023/02/10 09:53:17;;;;;;;67.47;31.08;;;;;;;7.54;41.94;99121.63;5055604;28;20027;-78
2023/02/10 09:55:50;;;;;;;68.55;31.40;;;;;;;8.01;42.88;99140.84;5042951;28;20476;-79
2023/02/10 09:58:25;;;;;;;66.38;28.40;;;;;;;8.91;40.84;99160.59;5091888;28;20150;-80
2023/02/10 10:01:21;;;;;;;66.07;31.25;;;;;;;9.24;40.56;99148.88;5079565;28;20032;-79
2023/02/10 10:03:56;;;;;;;66.75;31.92;;;;;;;9.57;39.96;99142.47;5070910;28;20487;-79
2023/02/10 10:06:43;;;;;;;80.82;38.03;;;;;;;9.05;39.64;99081.84;5074943;28;20036;-80
2023/02/10 10:09:08;;;;;;;54.40;26.67;;;;;;;10.23;38.88;99150.06;5061020;28;20036;-80
2023/02/10 10:11:48;;;;;;;51.03;25.23;;;;;;;9.86;37.92;99104.09;5094519;28;20414;-80
2023/02/10 10:14:23;;;;;;;64.10;30.17;;;;;;;9.49;38.64;99090.22;5068979;28;20105;-80
2023/02/10 10:17:19;;;;;;;57.47;25.67;;;;;;;10.50;38.84;99107.19;5081603;28;20406;-79
2023/02/10 10:20:13;;;;;;;29.98;14.35;;;;;;;8.64;38.84;99028.91;5076647;28;20028;-79
2023/02/10 10:23:07;;;;;;;128.38;72.80;;;;;;;7.88;40.96;99027.50;5065817;28;20024;-79
2023/02/10 10:25:51;;;;;;;41.45;22.60;;;;;;;7.58;41.86;99050.53;5077146;28;20080;-79
2023/02/10 10:28:35;;;;;;;28.45;12.57;;;;;;;9.53;39.42;99116.81;5103760;28;20036;-79
2023/02/10 10:31:17;;;;;;;25.38;11.63;;;;;;;7.98;41.28;99027.22;5087313;28;20503;-79
2023/02/10 10:34:16;;;;;;;27.30;12.25;;;;;;;8.15;41.78;99048.09;5069183;28;20121;-80
2023/02/10 10:40:18;;;;;;;23.50;11.13;;;;;;;10.15;39.64;99093.28;5078748;28;20028;-80
2023/02/10 10:42:49;;;;;;;23.83;10.18;;;;;;;10.50;37.38;99085.81;5094981;28;20080;-80
2023/02/10 10:45:42;;;;;;;20.35;8.70;;;;;;;9.98;38.50;99068.06;5080726;28;20044;-79
2023/02/10 10:48:14;;;;;;;25.10;12.43;;;;;;;9.27;37.64;98985.91;5041168;28;20503;-79
2023/02/10 10:50:40;;;;;;;19.63;10.38;;;;;;;8.59;40.54;99005.03;5079731;28;20039;-78
2023/02/10 10:53:14;;;;;;;24.58;10.13;;;;;;;8.92;39.67;99032.44;5076026;28;20036;-79
2023/02/10 10:55:42;;;;;;;23.33;9.82;;;;;;;10.12;38.90;99055.94;5063104;28;20156;-80
2023/02/10 10:58:26;;;;;;;21.58;9.85;;;;;;;10.81;37.18;99046.25;5060606;28;20028;-80
2023/02/10 11:00:54;;;;;;;22.73;11.07;;;;;;;10.80;37.07;99055.19;5073242;28;20102;-80
2023/02/10 11:03:20;;;;;;;24.17;11.35;;;;;;;11.80;36.49;99089.53;5096577;28;20031;-80
2023/02/10 11:06:07;;;;;;;23.30;10.73;;;;;;;11.76;35.93;99039.66;5075485;28;20066;-80
2023/02/10 11:08:41;;;;;;;30.20;14.65;;;;;;;11.68;36.13;99043.56;5069086;28;20031;-79
2023/02/10 11:11:10;;;;;;;30.50;13.13;;;;;;;12.09;36.88;99044.53;5064330;28;20432;-79
2023/02/10 11:13:52;;;;;;;29.42;12.82;;;;;;;11.46;36.22;98997.19;5078303;28;20462;-80
2023/02/10 11:16:18;;;;;;;28.60;14.40;;;;;;;11.73;35.77;98993.34;5064785;28;20090;-79
2023/02/10 11:18:57;;;;;;;30.85;15.23;;;;;;;13.00;35.19;99084.13;5072418;28;20032;-81
2023/02/10 11:21:37;;;;;;;32.10;15.63;;;;;;;13.34;34.02;99052.06;5055976;28;20037;-81
2023/02/10 11:24:03;;;;;;;25.90;12.02;;;;;;;13.82;33.86;99043.34;5067816;28;20372;-80
2023/02/10 11:26:29;;;;;;;30.77;13.55;;;;;;;14.40;32.77;99037.63;5065371;28;20029;-80
2023/02/10 11:28:56;;;;;;;25.63;15.05;;;;;;;14.96;32.36;99058.78;5056626;28;20150;-79
2023/02/10 11:31:24;;;;;;;31.00;15.38;;;;;;;14.54;32.56;99021.63;5086616;28;20029;-79
2023/02/10 11:34:00;;;;;;;27.65;15.00;;;;;;;13.87;32.81;98981.25;5089894;28;20028;-79